sensor_id;sensor_type;location;lat;lon;timestamp;temperature;humidity
1592;DHT22;789;51.612;7.510;2023-06-10T00:00:07;22.80;1.00
1592;DHT22;789;51.612;7.510;2023-06-10T00:02:37;22.80;1.00
1592;DHT22;789;51.612;7.510;2023-06-10T00:05:04;22.70;1.00
1592;DHT22;789;51.612;7.510;2023-06-10T00:07:34;22.70;1.00
1592;DHT22;789;51.612;7.510;2023-06-10T00:10:04;22.70;1.00
1592;DHT22;789;51.612;7.510;2023-06-10T00:12:31;22.70;1.00
1592;DHT22;789;51.612;7.510;2023-06-10T00:15:02;22.60;1.00
1592;DHT22;789;51.612;7.510;2023-06-10T00:17:29;22.60;1.00
1592;DHT22;789;51.612;7.510;2023-06-10T00:19:56;22.60;1.00
1592;DHT22;789;51.612;7.510;2023-06-10T00:22:23;22.50;1.00
1592;DHT22;789;51.612;7.510;2023-06-10T00:24:56;22.60;1.00
1592;DHT22;789;51.612;7.510;2023-06-10T00:27:23;22.50;1.00
1592;DHT22;789;51.612;7.510;2023-06-10T00:29:49;22.50;1.00
1592;DHT22;789;51.612;7.510;2023-06-10T00:32:16;22.50;1.00
1592;DHT22;789;51.612;7.510;2023-06-10T00:34:42;22.50;1.00
1592;DHT22;789;51.612;7.510;2023-06-10T00:37:12;22.50;1.00
1592;DHT22;789;51.612;7.510;2023-06-10T00:39:39;22.50;1.00
1592;DHT22;789;51.612;7.510;2023-06-10T00:42:08;22.50;1.00
1592;DHT22;789;51.612;7.510;2023-06-10T00:44:36;22.40;1.00
1592;DHT22;789;51.612;7.510;2023-06-10T00:47:03;22.40;1.00
1592;DHT22;789;51.612;7.510;2023-06-10T00:49:30;22.30;1.00
1592;DHT22;789;51.612;7.510;2023-06-10T00:51:57;22.30;1.00
1592;DHT22;789;51.612;7.510;2023-06-10T00:54:24;22.30;1.00
1592;DHT22;789;51.612;7.510;2023-06-10T00:56:52;22.20;1.00
1592;DHT22;789;51.612;7.510;2023-06-10T00:59:21;22.10;1.00
1592;DHT22;789;51.612;7.510;2023-06-10T01:01:48;22.00;1.00
1592;DHT22;789;51.612;7.510;2023-06-10T01:04:15;22.00;1.00
1592;DHT22;789;51.612;7.510;2023-06-10T01:06:50;21.90;1.00
1592;DHT22;789;51.612;7.510;2023-06-10T01:09:35;21.90;1.00
1592;DHT22;789;51.612;7.510;2023-06-10T01:12:09;21.90;1.00
1592;DHT22;789;51.612;7.510;2023-06-10T01:14:40;21.90;1.00
1592;DHT22;789;51.612;7.510;2023-06-10T01:17:10;21.90;1.00
1592;DHT22;789;51.612;7.510;2023-06-10T01:19:37;21.90;1.00
1592;DHT22;789;51.612;7.510;2023-06-10T01:22:05;21.90;1.00
1592;DHT22;789;51.612;7.510;2023-06-10T01:24:32;21.80;1.00
1592;DHT22;789;51.612;7.510;2023-06-10T01:27:01;21.80;1.00
1592;DHT22;789;51.612;7.510;2023-06-10T01:29:36;21.80;1.00
1592;DHT22;789;51.612;7.510;2023-06-10T01:32:06;21.80;1.00
1592;DHT22;789;51.612;7.510;2023-06-10T01:34:35;21.70;1.00
1592;DHT22;789;51.612;7.510;2023-06-10T01:37:05;21.70;1.00
1592;DHT22;789;51.612;7.510;2023-06-10T01:39:32;21.60;1.00
1592;DHT22;789;51.612;7.510;2023-06-10T01:42:00;21.60;1.00
1592;DHT22;789;51.612;7.510;2023-06-10T01:44:27;21.60;1.00
1592;DHT22;789;51.612;7.510;2023-06-10T01:46:54;21.50;1.00
1592;DHT22;789;51.612;7.510;2023-06-10T01:49:21;21.50;1.00
1592;DHT22;789;51.612;7.510;2023-06-10T01:51:49;21.50;1.00
1592;DHT22;789;51.612;7.510;2023-06-10T01:54:17;21.40;1.00
1592;DHT22;789;51.612;7.510;2023-06-10T01:56:44;21.40;1.00
1592;DHT22;789;51.612;7.510;2023-06-10T01:59:10;21.40;1.00
1592;DHT22;789;51.612;7.510;2023-06-10T02:01:37;21.30;1.00
1592;DHT22;789;51.612;7.510;2023-06-10T02:04:04;21.30;1.00
1592;DHT22;789;51.612;7.510;2023-06-10T02:06:30;21.30;1.00
1592;DHT22;789;51.612;7.510;2023-06-10T02:09:03;21.30;1.00
1592;DHT22;789;51.612;7.510;2023-06-10T02:11:31;21.30;1.00
1592;DHT22;789;51.612;7.510;2023-06-10T02:13:57;21.20;1.00
1592;DHT22;789;51.612;7.510;2023-06-10T02:16:24;21.20;1.00
1592;DHT22;789;51.612;7.510;2023-06-10T02:18:52;21.20;1.00
1592;DHT22;789;51.612;7.510;2023-06-10T02:21:18;21.10;1.00
1592;DHT22;789;51.612;7.510;2023-06-10T02:23:45;21.10;1.00
1592;DHT22;789;51.612;7.510;2023-06-10T02:26:12;21.10;1.00
1592;DHT22;789;51.612;7.510;2023-06-10T02:28:43;21.00;1.00
1592;DHT22;789;51.612;7.510;2023-06-10T02:31:10;21.00;1.00
1592;DHT22;789;51.612;7.510;2023-06-10T02:33:37;21.00;1.00
1592;DHT22;789;51.612;7.510;2023-06-10T02:36:05;20.90;1.00
1592;DHT22;789;51.612;7.510;2023-06-10T02:38:32;20.90;1.00
1592;DHT22;789;51.612;7.510;2023-06-10T02:40:59;20.90;1.00
1592;DHT22;789;51.612;7.510;2023-06-10T02:43:25;20.90;1.00
1592;DHT22;789;51.612;7.510;2023-06-10T02:45:53;20.90;1.00
1592;DHT22;789;51.612;7.510;2023-06-10T02:48:20;20.90;1.00
1592;DHT22;789;51.612;7.510;2023-06-10T02:50:47;20.80;1.00
1592;DHT22;789;51.612;7.510;2023-06-10T02:53:14;20.80;1.00
1592;DHT22;789;51.612;7.510;2023-06-10T02:55:40;20.80;1.00
1592;DHT22;789;51.612;7.510;2023-06-10T02:58:08;20.70;1.00
1592;DHT22;789;51.612;7.510;2023-06-10T03:00:35;20.70;1.00
1592;DHT22;789;51.612;7.510;2023-06-10T03:03:03;20.60;1.00
1592;DHT22;789;51.612;7.510;2023-06-10T03:05:30;20.60;1.00
1592;DHT22;789;51.612;7.510;2023-06-10T03:07:57;20.60;1.00
1592;DHT22;789;51.612;7.510;2023-06-10T03:10:24;20.60;1.00
1592;DHT22;789;51.612;7.510;2023-06-10T03:12:51;20.60;1.00
1592;DHT22;789;51.612;7.510;2023-06-10T03:15:18;20.50;1.00
1592;DHT22;789;51.612;7.510;2023-06-10T03:17:46;20.50;1.00
1592;DHT22;789;51.612;7.510;2023-06-10T03:20:14;20.50;1.00
1592;DHT22;789;51.612;7.510;2023-06-10T03:22:42;20.50;1.00
1592;DHT22;789;51.612;7.510;2023-06-10T03:25:09;20.50;1.00
1592;DHT22;789;51.612;7.510;2023-06-10T03:27:39;20.40;1.00
1592;DHT22;789;51.612;7.510;2023-06-10T03:30:07;20.40;1.00
1592;DHT22;789;51.612;7.510;2023-06-10T03:32:34;20.30;1.00
1592;DHT22;789;51.612;7.510;2023-06-10T03:35:00;20.30;1.00
1592;DHT22;789;51.612;7.510;2023-06-10T03:37:29;20.30;1.00
1592;DHT22;789;51.612;7.510;2023-06-10T03:39:55;20.30;1.00
1592;DHT22;789;51.612;7.510;2023-06-10T03:42:22;20.30;1.00
1592;DHT22;789;51.612;7.510;2023-06-10T03:44:48;20.20;1.00
1592;DHT22;789;51.612;7.510;2023-06-10T03:47:16;20.30;1.00
1592;DHT22;789;51.612;7.510;2023-06-10T03:49:42;20.30;1.00
1592;DHT22;789;51.612;7.510;2023-06-10T03:52:12;20.30;1.00
1592;DHT22;789;51.612;7.510;2023-06-10T03:54:40;20.30;1.00
1592;DHT22;789;51.612;7.510;2023-06-10T03:57:06;20.30;1.00
1592;DHT22;789;51.612;7.510;2023-06-10T03:59:33;20.40;1.00
1592;DHT22;789;51.612;7.510;2023-06-10T04:02:00;20.40;1.00
1592;DHT22;789;51.612;7.510;2023-06-10T04:04:27;20.40;1.00
1592;DHT22;789;51.612;7.510;2023-06-10T04:06:53;20.40;1.00
1592;DHT22;789;51.612;7.510;2023-06-10T04:09:20;20.40;1.00
1592;DHT22;789;51.612;7.510;2023-06-10T04:11:48;20.30;1.00
1592;DHT22;789;51.612;7.510;2023-06-10T04:14:15;20.30;1.00
1592;DHT22;789;51.612;7.510;2023-06-10T04:16:41;20.30;1.00
1592;DHT22;789;51.612;7.510;2023-06-10T04:19:08;20.40;1.00
1592;DHT22;789;51.612;7.510;2023-06-10T04:21:36;20.30;1.00
1592;DHT22;789;51.612;7.510;2023-06-10T04:24:03;20.40;1.00
1592;DHT22;789;51.612;7.510;2023-06-10T04:26:30;20.50;1.00
1592;DHT22;789;51.612;7.510;2023-06-10T04:28:58;20.50;1.00
1592;DHT22;789;51.612;7.510;2023-06-10T04:31:24;20.60;1.00
1592;DHT22;789;51.612;7.510;2023-06-10T04:33:51;20.70;1.00
1592;DHT22;789;51.612;7.510;2023-06-10T04:36:18;20.70;1.00
1592;DHT22;789;51.612;7.510;2023-06-10T04:38:44;20.80;1.00
1592;DHT22;789;51.612;7.510;2023-06-10T04:41:12;20.80;1.00
1592;DHT22;789;51.612;7.510;2023-06-10T04:43:39;20.80;1.00
1592;DHT22;789;51.612;7.510;2023-06-10T04:46:07;20.90;1.00
1592;DHT22;789;51.612;7.510;2023-06-10T04:48:33;21.00;1.00
1592;DHT22;789;51.612;7.510;2023-06-10T04:51:01;21.00;1.00
1592;DHT22;789;51.612;7.510;2023-06-10T04:53:28;21.00;1.00
1592;DHT22;789;51.612;7.510;2023-06-10T04:55:55;21.10;1.00
1592;DHT22;789;51.612;7.510;2023-06-10T04:58:22;21.10;1.00
1592;DHT22;789;51.612;7.510;2023-06-10T05:00:49;21.30;1.00
1592;DHT22;789;51.612;7.510;2023-06-10T05:03:17;21.40;1.00
1592;DHT22;789;51.612;7.510;2023-06-10T05:05:44;21.50;1.00
1592;DHT22;789;51.612;7.510;2023-06-10T05:08:11;21.60;1.00
1592;DHT22;789;51.612;7.510;2023-06-10T05:10:37;21.60;1.00
1592;DHT22;789;51.612;7.510;2023-06-10T05:13:04;21.70;1.00
1592;DHT22;789;51.612;7.510;2023-06-10T05:15:31;21.80;1.00
1592;DHT22;789;51.612;7.510;2023-06-10T05:17:58;21.90;1.00
1592;DHT22;789;51.612;7.510;2023-06-10T05:20:26;22.00;1.00
1592;DHT22;789;51.612;7.510;2023-06-10T05:22:53;22.10;1.00
1592;DHT22;789;51.612;7.510;2023-06-10T05:25:20;22.20;1.00
1592;DHT22;789;51.612;7.510;2023-06-10T05:27:47;22.40;1.00
1592;DHT22;789;51.612;7.510;2023-06-10T05:30:14;22.50;1.00
1592;DHT22;789;51.612;7.510;2023-06-10T05:32:44;22.70;1.00
1592;DHT22;789;51.612;7.510;2023-06-10T05:35:10;22.80;1.00
1592;DHT22;789;51.612;7.510;2023-06-10T05:37:39;22.90;1.00
1592;DHT22;789;51.612;7.510;2023-06-10T05:40:07;23.00;1.00
1592;DHT22;789;51.612;7.510;2023-06-10T05:42:34;23.10;1.00
1592;DHT22;789;51.612;7.510;2023-06-10T05:45:00;23.20;1.00
1592;DHT22;789;51.612;7.510;2023-06-10T05:47:27;23.20;1.00
1592;DHT22;789;51.612;7.510;2023-06-10T05:49:54;23.40;1.00
1592;DHT22;789;51.612;7.510;2023-06-10T05:52:21;23.50;1.00
1592;DHT22;789;51.612;7.510;2023-06-10T05:54:50;23.60;1.00
1592;DHT22;789;51.612;7.510;2023-06-10T05:57:17;23.90;1.00
1592;DHT22;789;51.612;7.510;2023-06-10T05:59:43;24.00;1.00
1592;DHT22;789;51.612;7.510;2023-06-10T06:02:10;24.00;1.00
1592;DHT22;789;51.612;7.510;2023-06-10T06:04:37;24.00;1.00
1592;DHT22;789;51.612;7.510;2023-06-10T06:07:04;24.00;1.00
1592;DHT22;789;51.612;7.510;2023-06-10T06:09:31;24.10;1.00
1592;DHT22;789;51.612;7.510;2023-06-10T06:11:59;24.10;1.00
1592;DHT22;789;51.612;7.510;2023-06-10T06:14:26;24.10;1.00
1592;DHT22;789;51.612;7.510;2023-06-10T06:16:53;24.10;1.00
1592;DHT22;789;51.612;7.510;2023-06-10T06:19:19;24.20;1.00
1592;DHT22;789;51.612;7.510;2023-06-10T06:21:46;24.30;1.00
1592;DHT22;789;51.612;7.510;2023-06-10T06:24:15;24.30;1.00
1592;DHT22;789;51.612;7.510;2023-06-10T06:26:42;24.60;1.00
1592;DHT22;789;51.612;7.510;2023-06-10T06:29:10;24.80;1.00
1592;DHT22;789;51.612;7.510;2023-06-10T06:31:37;25.00;1.00
1592;DHT22;789;51.612;7.510;2023-06-10T06:34:03;25.30;1.00
1592;DHT22;789;51.612;7.510;2023-06-10T06:36:30;25.50;1.00
1592;DHT22;789;51.612;7.510;2023-06-10T06:38:57;25.70;1.00
1592;DHT22;789;51.612;7.510;2023-06-10T06:41:24;25.90;1.00
1592;DHT22;789;51.612;7.510;2023-06-10T06:43:51;26.10;1.00
1592;DHT22;789;51.612;7.510;2023-06-10T06:46:19;26.20;1.00
1592;DHT22;789;51.612;7.510;2023-06-10T06:48:46;26.30;1.00
1592;DHT22;789;51.612;7.510;2023-06-10T06:51:13;26.50;1.00
1592;DHT22;789;51.612;7.510;2023-06-10T06:53:40;26.60;1.00
1592;DHT22;789;51.612;7.510;2023-06-10T06:56:09;26.70;1.00
1592;DHT22;789;51.612;7.510;2023-06-10T06:58:36;26.90;1.00
1592;DHT22;789;51.612;7.510;2023-06-10T07:01:03;27.10;1.00
1592;DHT22;789;51.612;7.510;2023-06-10T07:03:32;27.20;1.00
1592;DHT22;789;51.612;7.510;2023-06-10T07:05:58;27.40;1.00
1592;DHT22;789;51.612;7.510;2023-06-10T07:08:25;27.60;1.00
1592;DHT22;789;51.612;7.510;2023-06-10T07:10:52;27.60;1.00
1592;DHT22;789;51.612;7.510;2023-06-10T07:13:19;27.70;1.00
1592;DHT22;789;51.612;7.510;2023-06-10T07:15:46;27.70;1.00
1592;DHT22;789;51.612;7.510;2023-06-10T07:18:15;27.80;1.00
1592;DHT22;789;51.612;7.510;2023-06-10T07:20:43;27.90;1.00
1592;DHT22;789;51.612;7.510;2023-06-10T07:23:10;28.10;1.00
1592;DHT22;789;51.612;7.510;2023-06-10T07:25:37;28.20;1.00
1592;DHT22;789;51.612;7.510;2023-06-10T07:28:04;28.30;1.00
1592;DHT22;789;51.612;7.510;2023-06-10T07:30:30;28.50;1.00
1592;DHT22;789;51.612;7.510;2023-06-10T07:32:57;28.50;1.00
1592;DHT22;789;51.612;7.510;2023-06-10T07:35:24;28.70;1.00
1592;DHT22;789;51.612;7.510;2023-06-10T07:37:57;29.00;1.00
1592;DHT22;789;51.612;7.510;2023-06-10T07:40:24;29.40;1.00
1592;DHT22;789;51.612;7.510;2023-06-10T07:42:51;29.70;1.00
1592;DHT22;789;51.612;7.510;2023-06-10T07:45:18;29.90;1.00
1592;DHT22;789;51.612;7.510;2023-06-10T07:47:45;30.10;1.00
1592;DHT22;789;51.612;7.510;2023-06-10T07:50:11;30.30;1.00
1592;DHT22;789;51.612;7.510;2023-06-10T07:52:38;30.50;1.00
1592;DHT22;789;51.612;7.510;2023-06-10T07:55:07;30.90;1.00
1592;DHT22;789;51.612;7.510;2023-06-10T07:57:34;31.20;1.00
1592;DHT22;789;51.612;7.510;2023-06-10T08:00:02;31.60;1.00
1592;DHT22;789;51.612;7.510;2023-06-10T08:02:29;32.10;1.00
1592;DHT22;789;51.612;7.510;2023-06-10T08:04:56;32.60;1.00
1592;DHT22;789;51.612;7.510;2023-06-10T08:07:23;32.90;1.00
1592;DHT22;789;51.612;7.510;2023-06-10T08:09:50;33.40;1.00
1592;DHT22;789;51.612;7.510;2023-06-10T08:12:18;34.00;1.00
1592;DHT22;789;51.612;7.510;2023-06-10T08:14:45;34.80;1.00
1592;DHT22;789;51.612;7.510;2023-06-10T08:17:12;35.40;1.00
1592;DHT22;789;51.612;7.510;2023-06-10T08:19:38;36.00;1.00
1592;DHT22;789;51.612;7.510;2023-06-10T08:22:05;36.60;1.00
1592;DHT22;789;51.612;7.510;2023-06-10T08:24:32;37.20;1.00
1592;DHT22;789;51.612;7.510;2023-06-10T08:26:59;37.50;1.00
1592;DHT22;789;51.612;7.510;2023-06-10T08:29:27;37.70;1.00
1592;DHT22;789;51.612;7.510;2023-06-10T08:31:55;38.00;1.00
1592;DHT22;789;51.612;7.510;2023-06-10T08:34:22;38.20;1.00
1592;DHT22;789;51.612;7.510;2023-06-10T08:36:49;38.50;1.00
1592;DHT22;789;51.612;7.510;2023-06-10T08:39:18;39.00;1.00
1592;DHT22;789;51.612;7.510;2023-06-10T08:41:51;39.30;1.00
1592;DHT22;789;51.612;7.510;2023-06-10T08:44:29;39.70;1.00
1592;DHT22;789;51.612;7.510;2023-06-10T08:46:59;40.50;1.00
1592;DHT22;789;51.612;7.510;2023-06-10T08:49:27;41.10;1.00
1592;DHT22;789;51.612;7.510;2023-06-10T08:51:59;41.20;1.00
1592;DHT22;789;51.612;7.510;2023-06-10T08:54:28;41.80;1.00
1592;DHT22;789;51.612;7.510;2023-06-10T08:56:57;41.60;1.00
1592;DHT22;789;51.612;7.510;2023-06-10T08:59:25;41.20;1.00
1592;DHT22;789;51.612;7.510;2023-06-10T09:01:53;41.00;1.00
1592;DHT22;789;51.612;7.510;2023-06-10T09:04:20;41.00;1.00
1592;DHT22;789;51.612;7.510;2023-06-10T09:06:49;41.00;1.00
1592;DHT22;789;51.612;7.510;2023-06-10T09:09:16;41.00;1.00
1592;DHT22;789;51.612;7.510;2023-06-10T09:11:45;41.30;1.00
1592;DHT22;789;51.612;7.510;2023-06-10T09:14:11;41.20;1.00
1592;DHT22;789;51.612;7.510;2023-06-10T09:16:39;41.60;1.00
1592;DHT22;789;51.612;7.510;2023-06-10T09:19:08;42.20;1.00
1592;DHT22;789;51.612;7.510;2023-06-10T09:21:35;42.40;1.00
1592;DHT22;789;51.612;7.510;2023-06-10T09:24:02;42.50;1.00
1592;DHT22;789;51.612;7.510;2023-06-10T09:26:30;42.50;1.00
1592;DHT22;789;51.612;7.510;2023-06-10T09:29:02;42.50;1.00
1592;DHT22;789;51.612;7.510;2023-06-10T09:31:30;42.80;1.00
1592;DHT22;789;51.612;7.510;2023-06-10T09:34:05;42.70;1.00
1592;DHT22;789;51.612;7.510;2023-06-10T09:36:34;42.30;1.00
1592;DHT22;789;51.612;7.510;2023-06-10T09:39:01;41.90;1.00
1592;DHT22;789;51.612;7.510;2023-06-10T09:41:32;41.70;1.00
1592;DHT22;789;51.612;7.510;2023-06-10T09:43:59;41.90;1.00
1592;DHT22;789;51.612;7.510;2023-06-10T09:46:30;42.10;1.00
1592;DHT22;789;51.612;7.510;2023-06-10T09:48:58;42.40;1.00
1592;DHT22;789;51.612;7.510;2023-06-10T09:51:25;42.30;1.00
1592;DHT22;789;51.612;7.510;2023-06-10T09:53:53;42.50;1.00
1592;DHT22;789;51.612;7.510;2023-06-10T09:56:20;42.50;1.00
1592;DHT22;789;51.612;7.510;2023-06-10T09:58:53;42.50;1.00
1592;DHT22;789;51.612;7.510;2023-06-10T10:01:20;42.90;1.00
1592;DHT22;789;51.612;7.510;2023-06-10T10:03:49;43.30;1.00
1592;DHT22;789;51.612;7.510;2023-06-10T10:06:18;43.60;1.00
1592;DHT22;789;51.612;7.510;2023-06-10T10:08:45;43.70;1.00
1592;DHT22;789;51.612;7.510;2023-06-10T10:11:14;43.40;1.00
1592;DHT22;789;51.612;7.510;2023-06-10T10:13:45;43.40;1.00
1592;DHT22;789;51.612;7.510;2023-06-10T10:16:16;43.80;1.00
1592;DHT22;789;51.612;7.510;2023-06-10T10:18:47;43.80;1.00
1592;DHT22;789;51.612;7.510;2023-06-10T10:21:16;43.30;1.00
1592;DHT22;789;51.612;7.510;2023-06-10T10:23:49;43.00;1.00
1592;DHT22;789;51.612;7.510;2023-06-10T10:26:21;43.10;1.00
1592;DHT22;789;51.612;7.510;2023-06-10T10:28:51;43.10;1.00
1592;DHT22;789;51.612;7.510;2023-06-10T10:31:22;43.10;1.00
1592;DHT22;789;51.612;7.510;2023-06-10T10:33:54;43.40;1.00
1592;DHT22;789;51.612;7.510;2023-06-10T10:36:22;43.60;1.00
1592;DHT22;789;51.612;7.510;2023-06-10T10:38:49;43.50;1.00
1592;DHT22;789;51.612;7.510;2023-06-10T10:41:17;43.70;1.00
1592;DHT22;789;51.612;7.510;2023-06-10T10:43:46;44.20;1.00
1592;DHT22;789;51.612;7.510;2023-06-10T10:46:14;44.60;1.00
1592;DHT22;789;51.612;7.510;2023-06-10T10:48:43;44.80;1.00
1592;DHT22;789;51.612;7.510;2023-06-10T10:51:10;44.60;1.00
1592;DHT22;789;51.612;7.510;2023-06-10T10:53:37;44.60;1.00
1592;DHT22;789;51.612;7.510;2023-06-10T10:56:05;44.80;1.00
1592;DHT22;789;51.612;7.510;2023-06-10T10:58:32;45.00;1.00
1592;DHT22;789;51.612;7.510;2023-06-10T11:01:10;45.30;1.00
1592;DHT22;789;51.612;7.510;2023-06-10T11:03:42;45.30;1.00
1592;DHT22;789;51.612;7.510;2023-06-10T11:06:12;45.10;1.00
1592;DHT22;789;51.612;7.510;2023-06-10T11:08:49;44.90;1.00
1592;DHT22;789;51.612;7.510;2023-06-10T11:11:21;44.80;1.00
1592;DHT22;789;51.612;7.510;2023-06-10T11:13:58;44.70;1.00
1592;DHT22;789;51.612;7.510;2023-06-10T11:16:29;44.70;1.00
1592;DHT22;789;51.612;7.510;2023-06-10T11:18:56;44.70;1.00
1592;DHT22;789;51.612;7.510;2023-06-10T11:21:23;44.10;1.00
1592;DHT22;789;51.612;7.510;2023-06-10T11:23:50;43.80;1.00
1592;DHT22;789;51.612;7.510;2023-06-10T11:26:30;43.30;1.00
1592;DHT22;789;51.612;7.510;2023-06-10T11:29:07;42.80;1.00
1592;DHT22;789;51.612;7.510;2023-06-10T11:31:44;41.80;1.00
1592;DHT22;789;51.612;7.510;2023-06-10T11:34:11;40.90;1.00
1592;DHT22;789;51.612;7.510;2023-06-10T11:36:39;40.10;1.00
1592;DHT22;789;51.612;7.510;2023-06-10T11:39:08;39.20;1.00
1592;DHT22;789;51.612;7.510;2023-06-10T11:41:37;38.30;1.00
1592;DHT22;789;51.612;7.510;2023-06-10T11:44:06;37.30;1.00
1592;DHT22;789;51.612;7.510;2023-06-10T11:46:34;36.50;1.00
1592;DHT22;789;51.612;7.510;2023-06-10T11:49:03;35.70;1.00
1592;DHT22;789;51.612;7.510;2023-06-10T11:51:33;35.00;1.00
1592;DHT22;789;51.612;7.510;2023-06-10T11:54:00;34.40;1.00
1592;DHT22;789;51.612;7.510;2023-06-10T11:56:29;34.00;1.00
1592;DHT22;789;51.612;7.510;2023-06-10T11:58:57;33.60;1.00
1592;DHT22;789;51.612;7.510;2023-06-10T12:01:25;33.30;1.00
1592;DHT22;789;51.612;7.510;2023-06-10T12:03:57;33.10;1.00
1592;DHT22;789;51.612;7.510;2023-06-10T12:06:26;32.90;1.00
1592;DHT22;789;51.612;7.510;2023-06-10T12:08:54;32.60;1.00
1592;DHT22;789;51.612;7.510;2023-06-10T12:11:24;32.50;1.00
1592;DHT22;789;51.612;7.510;2023-06-10T12:13:52;32.40;1.00
1592;DHT22;789;51.612;7.510;2023-06-10T12:16:18;32.20;1.00
1592;DHT22;789;51.612;7.510;2023-06-10T12:18:46;32.10;1.00
1592;DHT22;789;51.612;7.510;2023-06-10T12:21:23;32.00;1.00
1592;DHT22;789;51.612;7.510;2023-06-10T12:24:06;31.80;1.00
1592;DHT22;789;51.612;7.510;2023-06-10T12:26:37;31.80;1.00
1592;DHT22;789;51.612;7.510;2023-06-10T12:29:25;31.80;1.00
1592;DHT22;789;51.612;7.510;2023-06-10T12:31:56;31.60;1.00
1592;DHT22;789;51.612;7.510;2023-06-10T12:34:38;31.50;1.00
1592;DHT22;789;51.612;7.510;2023-06-10T12:37:09;31.50;1.00
1592;DHT22;789;51.612;7.510;2023-06-10T12:39:40;31.50;1.00
1592;DHT22;789;51.612;7.510;2023-06-10T12:42:09;31.40;1.00
1592;DHT22;789;51.612;7.510;2023-06-10T12:44:39;31.30;1.00
1592;DHT22;789;51.612;7.510;2023-06-10T12:47:09;31.30;1.00
1592;DHT22;789;51.612;7.510;2023-06-10T12:49:39;31.30;1.00
1592;DHT22;789;51.612;7.510;2023-06-10T12:52:06;31.30;1.00
1592;DHT22;789;51.612;7.510;2023-06-10T12:54:34;31.30;1.00
1592;DHT22;789;51.612;7.510;2023-06-10T12:57:03;31.20;1.00
1592;DHT22;789;51.612;7.510;2023-06-10T12:59:31;31.20;1.00
1592;DHT22;789;51.612;7.510;2023-06-10T13:01:58;31.20;1.00
1592;DHT22;789;51.612;7.510;2023-06-10T13:04:25;31.10;1.00
1592;DHT22;789;51.612;7.510;2023-06-10T13:06:52;31.00;1.00
1592;DHT22;789;51.612;7.510;2023-06-10T13:09:19;31.00;1.00
1592;DHT22;789;51.612;7.510;2023-06-10T13:11:45;31.10;1.00
1592;DHT22;789;51.612;7.510;2023-06-10T13:14:14;31.10;1.00
1592;DHT22;789;51.612;7.510;2023-06-10T13:16:42;31.20;1.00
1592;DHT22;789;51.612;7.510;2023-06-10T13:19:10;31.20;1.00
1592;DHT22;789;51.612;7.510;2023-06-10T13:21:37;31.10;1.00
1592;DHT22;789;51.612;7.510;2023-06-10T13:24:04;31.10;1.00
1592;DHT22;789;51.612;7.510;2023-06-10T13:26:31;31.10;1.00
1592;DHT22;789;51.612;7.510;2023-06-10T13:28:57;31.10;1.00
1592;DHT22;789;51.612;7.510;2023-06-10T13:31:28;31.10;1.00
1592;DHT22;789;51.612;7.510;2023-06-10T13:33:54;31.10;1.00
1592;DHT22;789;51.612;7.510;2023-06-10T13:36:21;31.10;1.00
1592;DHT22;789;51.612;7.510;2023-06-10T13:38:48;31.10;1.00
1592;DHT22;789;51.612;7.510;2023-06-10T13:41:14;31.10;1.00
1592;DHT22;789;51.612;7.510;2023-06-10T13:43:41;31.00;1.00
1592;DHT22;789;51.612;7.510;2023-06-10T13:46:08;30.90;1.00
1592;DHT22;789;51.612;7.510;2023-06-10T13:48:36;30.90;1.00
1592;DHT22;789;51.612;7.510;2023-06-10T13:51:03;30.90;1.00
1592;DHT22;789;51.612;7.510;2023-06-10T13:53:29;31.00;1.00
1592;DHT22;789;51.612;7.510;2023-06-10T13:55:56;31.00;1.00
1592;DHT22;789;51.612;7.510;2023-06-10T13:58:23;30.90;1.00
1592;DHT22;789;51.612;7.510;2023-06-10T14:00:49;31.00;1.00
1592;DHT22;789;51.612;7.510;2023-06-10T14:03:16;30.90;1.00
1592;DHT22;789;51.612;7.510;2023-06-10T14:05:45;30.80;1.00
1592;DHT22;789;51.612;7.510;2023-06-10T14:08:11;30.80;1.00
1592;DHT22;789;51.612;7.510;2023-06-10T14:10:38;30.70;1.00
1592;DHT22;789;51.612;7.510;2023-06-10T14:13:05;30.60;1.00
1592;DHT22;789;51.612;7.510;2023-06-10T14:15:32;30.60;1.00
1592;DHT22;789;51.612;7.510;2023-06-10T14:17:59;30.50;1.00
1592;DHT22;789;51.612;7.510;2023-06-10T14:20:25;30.60;1.00
1592;DHT22;789;51.612;7.510;2023-06-10T14:22:57;30.50;1.00
1592;DHT22;789;51.612;7.510;2023-06-10T14:25:25;30.50;1.00
1592;DHT22;789;51.612;7.510;2023-06-10T14:27:51;30.40;1.00
1592;DHT22;789;51.612;7.510;2023-06-10T14:30:18;30.40;1.00
1592;DHT22;789;51.612;7.510;2023-06-10T14:32:44;30.40;1.00
1592;DHT22;789;51.612;7.510;2023-06-10T14:35:11;30.40;1.00
1592;DHT22;789;51.612;7.510;2023-06-10T14:37:38;30.40;1.00
1592;DHT22;789;51.612;7.510;2023-06-10T14:40:09;30.50;1.00
1592;DHT22;789;51.612;7.510;2023-06-10T14:42:36;30.50;1.00
1592;DHT22;789;51.612;7.510;2023-06-10T14:45:04;30.50;1.00
1592;DHT22;789;51.612;7.510;2023-06-10T14:47:31;30.60;1.00
1592;DHT22;789;51.612;7.510;2023-06-10T14:49:58;30.60;1.00
1592;DHT22;789;51.612;7.510;2023-06-10T14:52:24;30.60;1.00
1592;DHT22;789;51.612;7.510;2023-06-10T14:54:51;30.50;1.00
1592;DHT22;789;51.612;7.510;2023-06-10T14:57:23;30.50;1.00
1592;DHT22;789;51.612;7.510;2023-06-10T14:59:49;30.50;1.00
1592;DHT22;789;51.612;7.510;2023-06-10T15:02:16;30.50;1.00
1592;DHT22;789;51.612;7.510;2023-06-10T15:04:43;30.50;1.00
1592;DHT22;789;51.612;7.510;2023-06-10T15:07:09;30.50;1.00
1592;DHT22;789;51.612;7.510;2023-06-10T15:09:36;30.40;1.00
1592;DHT22;789;51.612;7.510;2023-06-10T15:12:03;30.40;1.00
1592;DHT22;789;51.612;7.510;2023-06-10T15:14:32;30.40;1.00
1592;DHT22;789;51.612;7.510;2023-06-10T15:16:59;30.40;1.00
1592;DHT22;789;51.612;7.510;2023-06-10T15:19:25;30.50;1.00
1592;DHT22;789;51.612;7.510;2023-06-10T15:21:53;30.40;1.00
1592;DHT22;789;51.612;7.510;2023-06-10T15:24:20;30.40;1.00
1592;DHT22;789;51.612;7.510;2023-06-10T15:26:46;30.40;1.00
1592;DHT22;789;51.612;7.510;2023-06-10T15:29:13;30.40;1.00
1592;DHT22;789;51.612;7.510;2023-06-10T15:31:41;30.40;1.00
1592;DHT22;789;51.612;7.510;2023-06-10T15:34:08;30.30;1.00
1592;DHT22;789;51.612;7.510;2023-06-10T15:36:34;30.20;1.00
1592;DHT22;789;51.612;7.510;2023-06-10T15:39:04;30.20;1.00
1592;DHT22;789;51.612;7.510;2023-06-10T15:41:32;30.20;1.00
1592;DHT22;789;51.612;7.510;2023-06-10T15:43:59;30.20;1.00
1592;DHT22;789;51.612;7.510;2023-06-10T15:46:26;30.10;1.00
1592;DHT22;789;51.612;7.510;2023-06-10T15:48:54;30.10;1.00
1592;DHT22;789;51.612;7.510;2023-06-10T15:51:21;30.00;1.00
1592;DHT22;789;51.612;7.510;2023-06-10T15:53:47;30.00;1.00
1592;DHT22;789;51.612;7.510;2023-06-10T15:56:14;30.00;1.00
1592;DHT22;789;51.612;7.510;2023-06-10T15:58:41;29.90;1.00
1592;DHT22;789;51.612;7.510;2023-06-10T16:01:08;29.90;1.00
1592;DHT22;789;51.612;7.510;2023-06-10T16:03:36;29.90;1.00
1592;DHT22;789;51.612;7.510;2023-06-10T16:06:08;29.90;1.00
1592;DHT22;789;51.612;7.510;2023-06-10T16:08:34;29.90;1.00
1592;DHT22;789;51.612;7.510;2023-06-10T16:11:01;29.90;1.00
1592;DHT22;789;51.612;7.510;2023-06-10T16:13:29;30.00;1.00
1592;DHT22;789;51.612;7.510;2023-06-10T16:15:56;30.00;1.00
1592;DHT22;789;51.612;7.510;2023-06-10T16:18:23;30.00;1.00
1592;DHT22;789;51.612;7.510;2023-06-10T16:20:50;30.00;1.00
1592;DHT22;789;51.612;7.510;2023-06-10T16:23:18;30.00;1.00
1592;DHT22;789;51.612;7.510;2023-06-10T16:25:44;30.00;1.00
1592;DHT22;789;51.612;7.510;2023-06-10T16:28:11;30.00;1.00
1592;DHT22;789;51.612;7.510;2023-06-10T16:30:38;30.00;1.00
1592;DHT22;789;51.612;7.510;2023-06-10T16:33:04;29.90;1.00
1592;DHT22;789;51.612;7.510;2023-06-10T16:35:31;29.90;1.00
1592;DHT22;789;51.612;7.510;2023-06-10T16:37:58;29.90;1.00